Time;durP1;ratioP1;P1;durP2;ratioP2;P2;SDS_P1;SDS_P2;PMS_P1;PMS_P2;Temp;Humidity;BMP_temperature;BMP_pressure;BME280_temperature;BME280_humidity;BME280_pressure;Samples;Min_cycle;Max_cycle;Signal;HPM_P1;HPM_P2
2022/11/17 07:21:16;;;;;;;5.17;4.40;;;5.90;99.90;;;;;;5144418;27;20278;-71
2022/11/17 07:23:45;;;;;;;7.80;6.40;;;9.50;65.20;;;;;;5143057;27;20212;-69
2022/11/17 07:26:14;;;;;;;9.17;7.53;;;7.70;60.00;;;;;;5131276;28;20199;-68
2022/11/17 07:28:42;;;;;;;5.43;4.93;;;6.70;64.60;;;;;;5131270;28;20664;-67
2022/11/17 07:31:11;;;;;;;10.07;7.07;;;6.10;66.80;;;;;;5131171;28;20293;-68
2022/11/17 07:33:39;;;;;;;7.07;5.90;;;5.80;69.90;;;;;;5131167;28;20221;-68
2022/11/17 07:36:10;;;;;;;11.93;9.13;;;5.70;71.00;;;;;;5129466;28;20298;-69
2022/11/17 07:38:40;;;;;;;10.50;7.20;;;5.50;71.40;;;;;;5147373;27;20195;-70
2022/11/17 07:41:10;;;;;;;7.93;7.13;;;5.40;75.90;;;;;;5150735;27;20218;-71
2022/11/17 07:43:38;;;;;;;9.40;7.17;;;5.20;75.80;;;;;;5151458;27;20192;-73
2022/11/17 07:46:09;;;;;;;7.37;6.40;;;5.20;76.10;;;;;;5151518;27;20553;-69
2022/11/17 07:48:37;;;;;;;10.90;7.43;;;5.10;76.60;;;;;;5151551;27;20200;-71
2022/11/17 07:51:07;;;;;;;11.70;8.77;;;5.20;77.90;;;;;;5151179;27;20205;-68
2022/11/17 07:53:36;;;;;;;10.67;6.30;;;5.00;77.90;;;;;;5145147;27;20721;-70
2022/11/17 07:56:07;;;;;;;9.60;6.90;;;5.10;78.30;;;;;;5130573;28;20595;-69
2022/11/17 07:58:36;;;;;;;6.00;5.50;;;5.20;77.70;;;;;;5147078;27;20203;-68
2022/11/17 08:01:06;;;;;;;7.37;5.53;;;5.10;77.40;;;;;;5151212;27;20205;-70
2022/11/17 08:03:35;;;;;;;6.23;5.23;;;5.00;78.80;;;;;;5151207;27;20198;-70
2022/11/17 08:06:05;;;;;;;13.13;7.07;;;5.10;78.00;;;;;;5132946;27;20278;-71
2022/11/17 08:08:34;;;;;;;6.80;5.97;;;5.00;78.40;;;;;;5150931;27;20208;-71
2022/11/17 08:11:05;;;;;;;12.80;8.80;;;5.10;79.80;;;;;;5150870;27;20208;-69
2022/11/17 08:13:34;;;;;;;5.03;4.40;;;5.00;79.00;;;;;;5150970;27;20296;-68
2022/11/17 08:16:03;;;;;;;10.70;7.63;;;4.80;79.30;;;;;;5151154;27;20193;-69
2022/11/17 08:18:32;;;;;;;6.13;5.20;;;4.90;80.30;;;;;;5150742;27;20284;-67
2022/11/17 08:21:03;;;;;;;16.00;8.27;;;4.90;77.10;;;;;;5149964;27;20237;-68
2022/11/17 08:23:33;;;;;;;23.70;12.30;;;4.80;76.50;;;;;;5150879;27;20664;-68
2022/11/17 08:26:02;;;;;;;79.50;32.27;;;4.90;76.80;;;;;;5150863;27;20291;-70
2022/11/17 08:28:32;;;;;;;26.13;11.73;;;4.80;76.50;;;;;;5150773;27;20566;-69
2022/11/17 08:31:02;;;;;;;27.83;13.93;;;5.00;76.40;;;;;;5145462;27;20663;-68
2022/11/17 08:33:30;;;;;;;15.67;9.17;;;5.20;76.30;;;;;;5136909;27;20194;-69
2022/11/17 08:35:59;;;;;;;37.87;19.27;;;5.30;74.50;;;;;;5136069;27;20301;-68
2022/11/17 08:38:28;;;;;;;22.93;13.80;;;5.40;73.40;;;;;;5136498;27;20664;-72
2022/11/17 08:40:57;;;;;;;17.23;11.53;;;5.30;73.20;;;;;;5136506;27;20230;-72
2022/11/17 08:43:26;;;;;;;21.77;11.97;;;5.30;73.00;;;;;;5136440;27;20183;-71
2022/11/17 08:45:56;;;;;;;7.80;6.00;;;5.30;72.50;;;;;;5136530;27;20620;-71
2022/11/17 08:48:25;;;;;;;9.47;7.60;;;5.30;72.30;;;;;;5135673;27;20225;-69
2022/11/17 08:50:53;;;;;;;12.37;8.47;;;5.10;73.30;;;;;;5136343;27;20199;-69
2022/11/17 08:53:23;;;;;;;6.57;5.30;;;5.00;73.60;;;;;;5135352;27;20248;-70
2022/11/17 08:55:51;;;;;;;10.57;7.83;;;5.20;73.30;;;;;;5136464;27;20204;-70
2022/11/17 08:58:20;;;;;;;4.87;4.37;;;5.30;73.10;;;;;;5134032;27;20234;-71
2022/11/17 09:00:48;;;;;;;27.87;15.43;;;5.20;71.70;;;;;;5136360;27;20211;-70
2022/11/17 09:03:22;;;;;;;11.10;8.20;;;5.20;73.30;;;;;;5135944;27;20195;-70
2022/11/17 09:05:50;;;;;;;23.70;11.33;;;5.30;74.20;;;;;;5135794;27;20236;-71
2022/11/17 09:08:19;;;;;;;5.97;5.37;;;5.60;72.60;;;;;;5135856;27;20191;-70
2022/11/17 09:11:11;;;;;;;12.87;9.60;;;5.60;70.00;;;;;;5135764;27;20195;-71
2022/11/17 09:13:40;;;;;;;3.80;3.50;;;5.40;71.00;;;;;;5135560;27;20230;-69
2022/11/17 09:16:11;;;;;;;16.57;9.53;;;5.00;70.40;;;;;;5135767;27;20195;-71
2022/11/17 09:18:41;;;;;;;12.53;8.67;;;4.90;73.40;;;;;;5133019;27;20236;-70
2022/11/17 09:21:12;;;;;;;9.47;6.83;;;5.20;73.50;;;;;;5118661;27;20285;-71
2022/11/17 09:23:40;;;;;;;6.03;4.97;;;5.40;70.80;;;;;;5118908;27;20244;-70
2022/11/17 09:26:11;;;;;;;6.80;5.67;;;5.50;69.60;;;;;;5135536;27;20185;-71
2022/11/17 09:28:40;;;;;;;8.73;6.73;;;5.50;69.30;;;;;;5130571;27;20252;-71
2022/11/17 09:31:10;;;;;;;8.10;5.50;;;5.60;69.00;;;;;;5129111;27;20521;-72
2022/11/17 09:33:39;;;;;;;8.07;7.27;;;5.80;68.50;;;;;;5134198;27;20203;-71
2022/11/17 09:36:10;;;;;;;5.80;5.20;;;6.10;67.30;;;;;;5096205;28;20640;-71
2022/11/17 09:38:39;;;;;;;5.30;4.80;;;5.90;65.00;;;;;;5114519;28;20202;-72
2022/11/17 09:41:26;;;;;;;6.37;4.13;;;6.00;64.10;;;;;;5118784;27;20215;-73
2022/11/17 09:44:03;;;;;;;6.17;3.63;;;5.60;63.90;;;;;;5133854;27;20207;-71
2022/11/17 09:46:44;;;;;;;4.03;3.70;;;5.20;64.10;;;;;;5135170;27;20287;-72
2022/11/17 09:49:20;;;;;;;7.83;4.67;;;5.10;65.50;;;;;;5125550;27;20216;-70
2022/11/17 09:51:50;;;;;;;13.03;8.53;;;5.20;65.50;;;;;;5130203;27;20222;-70
2022/11/17 09:54:23;;;;;;;19.03;8.63;;;5.30;65.30;;;;;;5131519;27;20657;-73
2022/11/17 09:56:54;;;;;;;28.57;12.37;;;5.30;64.90;;;;;;5114073;28;20673;-71
2022/11/17 09:59:27;;;;;;;29.90;12.57;;;5.60;65.50;;;;;;5114121;28;20271;-72
2022/11/17 10:01:55;;;;;;;6.10;4.67;;;5.90;64.20;;;;;;5114008;28;20709;-69
2022/11/17 10:04:29;;;;;;;88.27;33.13;;;5.70;63.10;;;;;;5114112;28;20219;-71
2022/11/17 10:06:59;;;;;;;20.17;9.83;;;5.80;65.60;;;;;;5113860;28;20206;-70
2022/11/17 10:09:36;;;;;;;10.53;6.17;;;5.80;63.80;;;;;;5113989;28;20196;-69
2022/11/17 10:12:15;;;;;;;8.63;5.67;;;5.70;63.90;;;;;;5113921;28;20199;-68
2022/11/17 10:14:44;;;;;;;4.60;4.10;;;5.50;64.30;;;;;;5113873;28;20196;-69
2022/11/17 10:17:13;;;;;;;5.77;4.33;;;5.50;65.80;;;;;;5113996;28;20192;-69
2022/11/17 10:19:43;;;;;;;16.50;9.17;;;5.40;64.90;;;;;;5113518;28;20239;-70
2022/11/17 10:22:28;;;;;;;7.13;6.33;;;5.40;65.90;;;;;;5125460;27;20321;-70
2022/11/17 10:24:57;;;;;;;18.73;8.53;;;5.60;65.00;;;;;;5133260;27;20201;-68
2022/11/17 10:27:28;;;;;;;15.77;8.33;;;5.60;65.40;;;;;;5134235;27;20302;-68
2022/11/17 10:29:58;;;;;;;8.03;5.27;;;5.70;65.90;;;;;;5134133;27;20245;-68
2022/11/17 10:32:28;;;;;;;11.57;7.60;;;5.70;64.50;;;;;;5134285;27;20560;-69
2022/11/17 10:34:56;;;;;;;12.83;9.27;;;5.70;65.10;;;;;;5125919;27;20204;-67
2022/11/17 10:37:30;;;;;;;18.63;13.27;;;5.70;65.50;;;;;;5133756;27;20554;-67
2022/11/17 10:40:19;;;;;;;8.80;7.20;;;5.80;65.60;;;;;;5113450;28;20188;-68
2022/11/17 10:43:16;;;;;;;5.37;4.97;;;5.90;65.00;;;;;;5113128;28;20204;-68
2022/11/17 10:45:46;;;;;;;5.70;4.47;;;5.70;64.10;;;;;;5127326;27;20233;-67
2022/11/17 10:48:24;;;;;;;5.07;4.57;;;5.50;64.80;;;;;;5113324;28;20207;-67
2022/11/17 10:50:55;;;;;;;6.40;4.83;;;5.30;66.20;;;;;;5113106;28;20665;-67
2022/11/17 10:53:37;;;;;;;40.07;22.60;;;5.40;66.60;;;;;;5113076;28;20204;-69
2022/11/17 10:56:15;;;;;;;9.97;8.43;;;5.40;66.20;;;;;;5113220;28;20195;-68
2022/11/17 10:58:59;;;;;;;13.20;9.53;;;5.50;65.90;;;;;;5113041;28;20729;-70
2022/11/17 11:01:33;;;;;;;12.87;9.77;;;5.60;66.20;;;;;;5112826;28;20762;-69
2022/11/17 11:04:03;;;;;;;9.93;6.40;;;5.60;65.90;;;;;;5113154;28;20191;-68
2022/11/17 11:06:33;;;;;;;15.10;8.87;;;5.50;65.20;;;;;;5112953;28;20204;-70
2022/11/17 11:09:10;;;;;;;14.40;8.47;;;5.30;66.10;;;;;;5125839;27;20201;-68
2022/11/17 11:11:44;;;;;;;22.83;11.73;;;5.20;66.00;;;;;;5133484;27;20191;-67
2022/11/17 11:14:19;;;;;;;10.07;6.97;;;5.20;66.20;;;;;;5133457;27;20182;-67
2022/11/17 11:16:49;;;;;;;21.30;9.80;;;5.30;66.40;;;;;;5133682;27;20221;-68
2022/11/17 11:19:20;;;;;;;30.17;12.03;;;5.30;66.80;;;;;;5129012;28;20308;-68
2022/11/17 11:22:15;;;;;;;23.50;9.60;;;5.30;66.20;;;;;;5121165;28;20280;-69
2022/11/17 11:24:57;;;;;;;13.57;7.97;;;5.30;65.70;;;;;;5065789;28;20618;-70
2022/11/17 11:27:47;;;;;;;7.70;6.27;;;5.10;66.20;;;;;;5041597;28;20592;-72
2022/11/17 11:30:17;;;;;;;23.33;13.93;;;5.10;66.00;;;;;;5050087;28;20361;-69
2022/11/17 11:32:57;;;;;;;41.53;18.27;;;5.00;65.80;;;;;;5050235;28;20619;-69
2022/11/17 11:35:53;;;;;;;10.77;7.90;;;5.20;65.80;;;;;;5068668;28;20216;-73
2022/11/17 11:38:44;;;;;;;18.63;10.17;;;5.10;64.80;;;;;;5070064;28;20282;-68
2022/11/17 11:41:30;;;;;;;40.73;21.43;;;5.00;64.10;;;;;;5069965;28;20695;-71
2022/11/17 11:44:17;;;;;;;18.53;8.40;;;5.20;64.40;;;;;;5069887;28;20276;-73
2022/11/17 11:46:53;;;;;;;23.53;9.73;;;5.20;63.70;;;;;;5059251;28;20214;-68
2022/11/17 11:49:32;;;;;;;16.47;9.73;;;5.20;63.30;;;;;;5049635;28;20208;-72
2022/11/17 11:52:02;;;;;;;17.93;11.73;;;5.30;63.60;;;;;;5049977;28;20224;-70
2022/11/17 11:54:38;;;;;;;15.53;9.87;;;5.30;63.00;;;;;;5049628;28;20677;-71
2022/11/17 11:57:13;;;;;;;8.73;6.73;;;5.20;62.30;;;;;;5058700;28;20201;-69
2022/11/17 11:59:50;;;;;;;17.30;9.80;;;5.00;62.30;;;;;;5053589;28;20293;-70
2022/11/17 12:02:28;;;;;;;28.10;13.90;;;5.00;62.80;;;;;;5094188;28;20321;-69
2022/11/17 12:05:07;;;;;;;35.27;16.27;;;5.00;62.80;;;;;;5112638;28;20214;-67
2022/11/17 12:07:43;;;;;;;7.73;5.77;;;5.00;63.20;;;;;;5120989;27;20183;-68
2022/11/17 12:10:20;;;;;;;13.50;8.97;;;4.90;63.30;;;;;;5137041;27;20217;-69
2022/11/17 12:12:51;;;;;;;21.23;9.90;;;5.00;64.20;;;;;;5136470;27;20202;-70
2022/11/17 12:15:36;;;;;;;17.63;8.40;;;5.00;64.50;;;;;;5137035;27;20210;-71
2022/11/17 12:18:11;;;;;;;15.57;10.00;;;5.10;64.30;;;;;;5136614;27;20247;-71
2022/11/17 12:20:59;;;;;;;8.37;7.17;;;5.10;64.70;;;;;;5136348;27;20225;-69
2022/11/17 12:23:48;;;;;;;10.63;7.20;;;5.00;63.80;;;;;;5136496;27;20222;-69
2022/11/17 12:26:25;;;;;;;9.13;7.17;;;4.90;64.70;;;;;;5136531;27;20204;-69
2022/11/17 12:29:26;;;;;;;9.83;7.20;;;4.90;65.50;;;;;;5136274;27;20195;-69
2022/11/17 12:31:57;;;;;;;8.63;7.03;;;4.90;66.00;;;;;;5132299;27;20230;-69
2022/11/17 12:34:29;;;;;;;6.50;5.90;;;4.70;67.60;;;;;;5121079;27;20237;-69
2022/11/17 12:37:26;;;;;;;5.80;5.30;;;4.70;67.80;;;;;;5127318;27;20232;-70
2022/11/17 12:40:00;;;;;;;12.77;8.30;;;4.70;68.50;;;;;;5115666;28;20730;-69
2022/11/17 12:42:30;;;;;;;19.13;10.60;;;4.70;69.40;;;;;;5115568;28;20569;-69
2022/11/17 12:45:09;;;;;;;11.10;7.30;;;4.90;69.30;;;;;;5115553;28;20616;-69
2022/11/17 12:47:40;;;;;;;42.63;20.33;;;5.00;69.50;;;;;;5115822;28;20206;-68
2022/11/17 12:50:41;;;;;;;24.07;12.20;;;5.00;70.10;;;;;;5115775;28;20548;-69
2022/11/17 12:53:33;;;;;;;30.97;16.43;;;5.00;72.00;;;;;;5115439;28;20195;-67
2022/11/17 12:56:32;;;;;;;23.80;14.10;;;5.10;74.00;;;;;;5115546;28;20197;-69
2022/11/17 12:59:44;;;;;;;11.23;9.17;;;5.30;74.80;;;;;;5115327;28;20219;-68
2022/11/17 13:02:44;;;;;;;14.73;10.20;;;5.30;74.60;;;;;;5084260;28;20227;-68
2022/11/17 13:05:17;;;;;;;19.60;8.23;;;5.40;75.50;;;;;;5092936;28;20300;-69
2022/11/17 13:07:46;;;;;;;19.13;10.93;;;5.40;74.40;;;;;;5092820;28;20395;-69
2022/11/17 13:10:25;;;;;;;20.50;11.17;;;5.30;74.60;;;;;;5092833;28;20203;-70
2022/11/17 13:13:10;;;;;;;31.17;12.47;;;5.40;74.60;;;;;;5092464;28;20287;-70
2022/11/17 13:15:39;;;;;;;62.97;23.07;;;5.40;73.30;;;;;;5092610;28;20210;-70
2022/11/17 13:18:18;;;;;;;29.47;13.30;;;5.40;73.60;;;;;;5091042;28;20210;-70
2022/11/17 13:20:48;;;;;;;28.77;12.17;;;5.30;73.00;;;;;;5071954;28;20287;-70
2022/11/17 13:23:21;;;;;;;16.10;9.10;;;5.20;73.50;;;;;;5072263;28;20298;-70
2022/11/17 13:25:51;;;;;;;60.57;27.77;;;5.00;74.40;;;;;;5071897;28;20220;-71
2022/11/17 13:28:30;;;;;;;39.97;28.53;;;5.10;75.10;;;;;;5072242;28;20197;-70
2022/11/17 13:31:00;;;;;;;38.77;19.50;;;5.10;74.70;;;;;;5080824;28;20340;-69
2022/11/17 13:33:31;;;;;;;17.70;9.43;;;5.00;74.00;;;;;;5072550;28;20231;-69
2022/11/17 13:36:15;;;;;;;17.93;10.83;;;5.00;74.80;;;;;;5071953;28;20200;-69
2022/11/17 13:38:51;;;;;;;18.17;10.37;;;5.00;75.60;;;;;;5074488;28;20208;-69
2022/11/17 13:41:23;;;;;;;72.73;29.83;;;5.00;75.50;;;;;;5094659;28;20196;-70
2022/11/17 13:43:55;;;;;;;29.77;15.83;;;5.00;75.80;;;;;;5094067;28;20269;-69
2022/11/17 13:46:24;;;;;;;24.27;16.37;;;5.00;75.90;;;;;;5094084;28;20193;-70
2022/11/17 13:48:54;;;;;;;13.97;10.83;;;5.10;77.00;;;;;;5093523;28;20208;-70
2022/11/17 13:51:27;;;;;;;14.57;9.17;;;5.00;76.90;;;;;;5093457;28;20288;-71
2022/11/17 13:53:59;;;;;;;17.33;8.90;;;5.00;77.00;;;;;;5093725;28;20203;-71
2022/11/17 13:56:35;;;;;;;39.47;21.73;;;5.00;76.70;;;;;;5092465;28;20196;-71
2022/11/17 13:59:06;;;;;;;14.57;8.30;;;4.90;81.10;;;;;;5092946;28;20201;-70
2022/11/17 14:01:35;;;;;;;12.43;8.93;;;4.90;77.70;;;;;;5094407;28;20666;-72
2022/11/17 14:04:17;;;;;;;14.90;9.70;;;4.80;77.10;;;;;;5093441;28;20232;-69
2022/11/17 14:06:56;;;;;;;16.47;10.17;;;4.80;77.20;;;;;;5093426;28;20227;-71
2022/11/17 14:09:25;;;;;;;17.40;12.03;;;4.80;77.40;;;;;;5093244;28;20203;-70
2022/11/17 14:11:55;;;;;;;32.30;18.50;;;4.80;77.60;;;;;;5093353;28;20235;-69
2022/11/17 14:14:31;;;;;;;22.80;13.57;;;4.80;78.00;;;;;;5092678;28;20202;-72
2022/11/17 14:17:12;;;;;;;21.70;13.83;;;4.80;78.40;;;;;;5094036;28;20190;-69
2022/11/17 14:19:42;;;;;;;42.50;26.37;;;4.90;78.10;;;;;;5093101;28;20293;-70
2022/11/17 14:22:23;;;;;;;44.30;23.40;;;5.00;77.90;;;;;;5093094;28;20674;-70
2022/11/17 14:24:58;;;;;;;96.57;52.07;;;4.90;77.80;;;;;;5093015;28;20221;-69
2022/11/17 14:27:39;;;;;;;33.23;20.23;;;4.90;88.00;;;;;;5093004;28;20554;-71
2022/11/17 14:30:13;;;;;;;26.77;17.57;;;4.80;80.30;;;;;;5092223;28;20278;-69
2022/11/17 14:32:41;;;;;;;53.00;29.10;;;4.80;82.10;;;;;;5092788;28;20708;-68
2022/11/17 14:35:14;;;;;;;30.97;20.97;;;4.80;83.10;;;;;;5092903;28;20295;-67
2022/11/17 14:37:48;;;;;;;36.50;23.47;;;4.60;83.10;;;;;;5092813;28;20218;-70
2022/11/17 14:40:17;;;;;;;48.07;26.07;;;4.40;85.00;;;;;;5093712;28;20188;-81
2022/11/17 14:42:46;;;;;;;47.30;27.47;;;4.30;86.10;;;;;;5092913;28;20311;-67
2022/11/17 14:45:15;;;;;;;42.63;24.80;;;4.20;87.20;;;;;;5092605;28;20196;-81
2022/11/17 14:47:44;;;;;;;41.83;24.57;;;4.10;88.90;;;;;;5090266;28;20202;-82
2022/11/17 14:50:16;;;;;;;52.53;27.20;;;4.00;90.00;;;;;;5073528;28;20525;-66
2022/11/17 14:52:45;;;;;;;58.50;32.10;;;4.00;90.30;;;;;;5072567;28;20234;-66
2022/11/17 14:55:14;;;;;;;35.43;21.63;;;3.90;90.60;;;;;;5072601;28;20219;-66
2022/11/17 14:57:43;;;;;;;44.97;26.13;;;3.80;91.40;;;;;;5072416;28;20196;-67
2022/11/17 15:00:13;;;;;;;59.80;31.43;;;3.70;91.70;;;;;;5072195;28;20198;-79
2022/11/17 15:02:47;;;;;;;55.60;27.60;;;3.60;92.50;;;;;;5072327;28;20265;-70
2022/11/17 15:05:17;;;;;;;70.50;36.97;;;3.50;92.90;;;;;;5072478;28;20192;-76
2022/11/17 15:07:46;;;;;;;71.97;38.27;;;3.50;93.30;;;;;;5088831;28;20201;-71
2022/11/17 15:10:14;;;;;;;60.87;32.17;;;3.60;93.60;;;;;;5112720;28;20201;-82
2022/11/17 15:12:43;;;;;;;75.70;36.20;;;3.50;93.70;;;;;;5112903;28;20723;-69
2022/11/17 15:15:12;;;;;;;74.13;36.80;;;3.60;94.00;;;;;;5108170;28;20208;-84
2022/11/17 15:17:40;;;;;;;61.90;35.83;;;3.60;95.00;;;;;;5095006;28;20205;-83
2022/11/17 15:20:09;;;;;;;59.27;34.17;;;3.60;94.50;;;;;;5124630;28;20261;-87
2022/11/17 15:22:39;;;;;;;54.53;31.50;;;3.70;94.20;;;;;;5134145;28;20197;-78
2022/11/17 15:25:09;;;;;;;46.67;28.37;;;3.60;94.60;;;;;;5134272;28;20222;-86
2022/11/17 15:27:37;;;;;;;52.33;28.00;;;3.60;94.60;;;;;;5133908;28;20209;-77
2022/11/17 15:30:07;;;;;;;83.07;42.50;;;3.60;94.80;;;;;;5133193;28;20629;-67
2022/11/17 15:32:37;;;;;;;49.63;29.40;;;3.60;95.00;;;;;;5133450;28;20277;-67
2022/11/17 15:35:06;;;;;;;49.23;27.30;;;3.50;95.10;;;;;;5133175;28;20665;-70
2022/11/17 15:37:34;;;;;;;52.70;27.23;;;3.50;95.20;;;;;;5133636;28;20197;-68
2022/11/17 15:40:05;;;;;;;51.80;28.03;;;3.40;95.60;;;;;;5133768;27;20198;-82
2022/11/17 15:42:34;;;;;;;74.73;41.43;;;3.30;96.30;;;;;;5137260;27;20288;-66
2022/11/17 15:45:03;;;;;;;76.60;35.53;;;3.30;96.70;;;;;;5137885;27;20224;-68
2022/11/17 15:47:32;;;;;;;80.97;35.27;;;3.40;96.80;;;;;;5137588;27;20231;-76
2022/11/17 15:50:00;;;;;;;89.23;40.20;;;3.40;96.90;;;;;;5137491;27;20196;-69
2022/11/17 15:52:28;;;;;;;67.30;33.33;;;3.50;97.60;;;;;;5137390;27;20284;-75
2022/11/17 15:55:18;;;;;;;59.27;33.50;;;3.60;96.80;;;;;;5137672;27;20194;-69
2022/11/17 15:57:47;;;;;;;45.17;27.77;;;3.70;96.50;;;;;;5137810;27;20201;-85
2022/11/17 16:00:17;;;;;;;56.37;31.17;;;3.60;96.60;;;;;;5157961;27;20192;-69
2022/11/17 16:02:46;;;;;;;66.63;31.93;;;3.70;97.00;;;;;;5158083;27;20205;-76
2022/11/17 16:05:14;;;;;;;75.70;34.73;;;3.60;96.80;;;;;;5158086;27;20567;-82
2022/11/17 16:07:43;;;;;;;41.33;24.93;;;3.60;97.10;;;;;;5139346;27;20708;-81
2022/11/17 16:10:18;;;;;;;70.47;37.90;;;3.70;97.00;;;;;;5158841;27;20237;-78
2022/11/17 16:12:48;;;;;;;49.43;30.03;;;3.70;98.30;;;;;;5158068;27;20193;-77
2022/11/17 16:15:17;;;;;;;40.00;25.53;;;3.70;97.50;;;;;;5158000;27;20354;-67
2022/11/17 16:17:46;;;;;;;34.60;21.87;;;3.80;97.10;;;;;;5158400;27;20193;-66
2022/11/17 16:20:15;;;;;;;61.63;29.03;;;3.90;97.00;;;;;;5157854;27;20218;-83
2022/11/17 16:22:43;;;;;;;51.23;25.27;;;3.90;97.60;;;;;;5158186;27;20674;-76
2022/11/17 16:25:12;;;;;;;38.90;25.17;;;3.90;96.90;;;;;;5157403;27;20221;-78
2022/11/17 16:27:42;;;;;;;35.07;22.40;;;4.00;96.80;;;;;;5157226;27;20207;-67
2022/11/17 16:30:12;;;;;;;31.90;19.97;;;4.00;96.50;;;;;;5157159;27;20605;-66
2022/11/17 16:32:40;;;;;;;47.87;26.47;;;4.00;96.60;;;;;;5148840;27;20601;-72
2022/11/17 16:35:09;;;;;;;37.07;23.60;;;4.00;96.40;;;;;;5124884;27;20285;-67
2022/11/17 16:37:37;;;;;;;46.77;28.63;;;4.00;96.40;;;;;;5115556;28;20667;-66
2022/11/17 16:40:07;;;;;;;49.00;26.90;;;4.10;96.50;;;;;;5115340;28;20221;-71
2022/11/17 16:42:35;;;;;;;58.20;32.33;;;4.20;96.00;;;;;;5137496;27;20205;-67
2022/11/17 16:45:06;;;;;;;56.07;36.07;;;4.20;96.10;;;;;;5156094;27;20303;-67
2022/11/17 16:47:35;;;;;;;45.20;26.10;;;4.20;96.30;;;;;;5143201;27;20256;-66
2022/11/17 16:50:03;;;;;;;55.43;29.13;;;4.20;96.10;;;;;;5135083;27;20286;-66
2022/11/17 16:52:34;;;;;;;127.27;55.70;;;4.20;96.20;;;;;;5134678;27;20186;-67
2022/11/17 16:55:03;;;;;;;130.07;62.20;;;4.30;96.20;;;;;;5135442;27;20728;-69
2022/11/17 16:57:32;;;;;;;74.30;43.37;;;4.30;96.20;;;;;;5134000;27;20935;-67
2022/11/17 17:00:01;;;;;;;50.07;31.93;;;4.40;96.00;;;;;;5129823;27;20574;-67
2022/11/17 17:02:31;;;;;;;42.67;25.27;;;4.40;95.70;;;;;;5131621;27;20193;-66
2022/11/17 17:05:00;;;;;;;40.50;25.43;;;4.50;95.60;;;;;;5134787;27;20248;-63
2022/11/17 17:07:28;;;;;;;37.97;23.00;;;4.60;95.40;;;;;;5134748;27;20667;-64
2022/11/17 17:09:57;;;;;;;34.83;21.83;;;4.60;95.20;;;;;;5134838;27;20694;-68
2022/11/17 17:12:27;;;;;;;30.87;20.83;;;4.50;95.20;;;;;;5134607;27;20198;-68
2022/11/17 17:14:55;;;;;;;37.60;22.67;;;4.40;95.60;;;;;;5134389;27;20198;-68
2022/11/17 17:17:24;;;;;;;45.53;26.80;;;4.40;96.00;;;;;;5135490;27;20203;-64
2022/11/17 17:19:54;;;;;;;45.37;25.90;;;4.40;95.90;;;;;;5134034;27;20227;-64
2022/11/17 17:22:22;;;;;;;46.30;25.57;;;4.30;95.90;;;;;;5135388;27;20252;-65
2022/11/17 17:24:51;;;;;;;36.43;23.53;;;4.30;96.20;;;;;;5134783;27;20227;-68
2022/11/17 17:27:20;;;;;;;36.37;25.50;;;4.40;96.30;;;;;;5134469;27;20195;-67
2022/11/17 17:29:48;;;;;;;35.47;21.27;;;4.50;95.90;;;;;;5135271;27;20197;-66
2022/11/17 17:32:17;;;;;;;35.20;21.40;;;4.50;95.70;;;;;;5134187;27;20196;-65
2022/11/17 17:34:45;;;;;;;39.20;23.20;;;4.60;95.50;;;;;;5134442;27;20234;-66
2022/11/17 17:37:15;;;;;;;43.60;25.67;;;4.60;95.40;;;;;;5134463;27;20220;-66
2022/11/17 17:39:44;;;;;;;44.77;26.53;;;4.60;95.00;;;;;;5134481;27;20203;-70
2022/11/17 17:42:13;;;;;;;45.53;25.90;;;4.60;94.80;;;;;;5134340;27;20303;-66
2022/11/17 17:44:41;;;;;;;51.27;30.93;;;4.50;95.20;;;;;;5134619;27;20215;-65
2022/11/17 17:47:10;;;;;;;59.43;31.53;;;4.50;95.30;;;;;;5124982;27;20211;-67
2022/11/17 17:49:39;;;;;;;42.10;27.00;;;4.50;95.30;;;;;;5120284;27;20556;-70
2022/11/17 17:52:07;;;;;;;36.60;24.63;;;4.40;95.50;;;;;;5123249;27;20987;-69
2022/11/17 17:54:42;;;;;;;37.10;22.43;;;4.30;96.10;;;;;;5128003;27;20200;-66
2022/11/17 17:57:10;;;;;;;26.40;19.53;;;4.40;96.00;;;;;;5133161;27;20537;-66
2022/11/17 17:59:39;;;;;;;36.10;21.03;;;4.40;96.10;;;;;;5119798;27;20204;-66
2022/11/17 18:02:08;;;;;;;33.57;20.33;;;4.40;95.90;;;;;;5126101;27;20197;-66
2022/11/17 18:04:37;;;;;;;26.50;17.27;;;4.50;95.90;;;;;;5133468;27;20560;-66
2022/11/17 18:07:05;;;;;;;24.80;17.03;;;4.50;95.60;;;;;;5134148;27;20195;-65
2022/11/17 18:09:34;;;;;;;33.57;19.63;;;4.60;95.40;;;;;;5132201;27;20218;-71
2022/11/17 18:12:04;;;;;;;21.30;13.83;;;4.70;95.20;;;;;;5121457;27;20783;-65
2022/11/17 18:14:33;;;;;;;21.83;14.13;;;4.70;94.70;;;;;;5116803;27;20287;-68
2022/11/17 18:17:01;;;;;;;28.43;15.47;;;4.60;94.50;;;;;;5114282;27;20222;-66
2022/11/17 18:19:30;;;;;;;29.23;16.23;;;4.60;94.70;;;;;;5131670;27;20705;-69
2022/11/17 18:22:00;;;;;;;30.53;17.30;;;4.70;94.80;;;;;;5154398;27;20209;-64
2022/11/17 18:24:29;;;;;;;25.87;15.30;;;4.80;94.60;;;;;;5132111;27;20203;-66
2022/11/17 18:26:57;;;;;;;20.07;12.73;;;4.80;94.10;;;;;;5128811;27;20271;-68
2022/11/17 18:29:27;;;;;;;35.27;18.67;;;4.80;93.90;;;;;;5133406;27;20859;-66
2022/11/17 18:31:56;;;;;;;41.17;18.93;;;4.80;93.90;;;;;;5145538;27;20209;-66
2022/11/17 18:34:25;;;;;;;85.23;27.43;;;4.70;94.00;;;;;;5153896;27;20271;-72
2022/11/17 18:36:55;;;;;;;45.13;18.23;;;4.80;94.00;;;;;;5137769;27;20201;-69
2022/11/17 18:39:26;;;;;;;41.43;19.10;;;4.80;93.50;;;;;;5132171;27;20196;-65
2022/11/17 18:41:54;;;;;;;52.20;22.63;;;4.80;93.60;;;;;;5154096;27;20656;-67
2022/11/17 18:44:23;;;;;;;31.07;16.90;;;4.90;93.40;;;;;;5153789;27;20213;-65
2022/11/17 18:46:53;;;;;;;31.33;16.63;;;4.80;93.30;;;;;;5131357;27;20694;-66
2022/11/17 18:49:26;;;;;;;47.57;22.97;;;4.80;93.70;;;;;;5113191;28;20203;-64
2022/11/17 18:51:55;;;;;;;33.97;17.90;;;4.70;94.00;;;;;;5113400;27;20206;-66
2022/11/17 18:54:23;;;;;;;31.87;17.90;;;4.80;94.60;;;;;;5130150;27;20198;-71
2022/11/17 18:56:52;;;;;;;20.70;13.33;;;4.80;94.00;;;;;;5122847;27;20317;-66
2022/11/17 18:59:20;;;;;;;53.40;28.47;;;4.80;93.70;;;;;;5135366;27;20298;-69
2022/11/17 19:01:49;;;;;;;50.37;29.70;;;4.80;93.80;;;;;;5133428;27;20204;-66
2022/11/17 19:04:19;;;;;;;38.73;25.13;;;4.90;93.90;;;;;;5133322;27;20208;-66
2022/11/17 19:06:48;;;;;;;39.00;23.47;;;4.90;94.30;;;;;;5133578;27;20591;-71
2022/11/17 19:09:17;;;;;;;42.30;24.00;;;4.90;93.40;;;;;;5133513;27;20574;-67
2022/11/17 19:11:46;;;;;;;45.80;25.53;;;5.00;93.50;;;;;;5132957;27;20198;-68
2022/11/17 19:14:14;;;;;;;55.90;30.40;;;5.10;93.20;;;;;;5111725;28;20760;-68
2022/11/17 19:16:43;;;;;;;69.87;35.73;;;4.90;93.40;;;;;;5124096;27;20293;-82
2022/11/17 19:19:13;;;;;;;55.47;28.83;;;4.80;94.10;;;;;;5147380;27;20230;-73
2022/11/17 19:21:44;;;;;;;41.43;22.13;;;4.90;94.70;;;;;;5154068;27;20231;-74
2022/11/17 19:24:14;;;;;;;41.47;21.67;;;5.00;94.40;;;;;;5154231;27;20314;-72
2022/11/17 19:26:42;;;;;;;30.43;19.60;;;5.00;94.30;;;;;;5140229;27;20223;-71
2022/11/17 19:29:12;;;;;;;28.60;18.57;;;5.10;94.20;;;;;;5126525;27;20252;-70
2022/11/17 19:31:44;;;;;;;26.13;17.67;;;5.20;94.10;;;;;;5116974;28;20203;-70
2022/11/17 19:34:13;;;;;;;33.50;20.87;;;5.20;93.90;;;;;;5145622;27;20686;-73
2022/11/17 19:36:44;;;;;;;35.67;21.27;;;5.20;93.90;;;;;;5122507;28;20548;-82
2022/11/17 19:39:13;;;;;;;40.53;22.67;;;5.10;94.10;;;;;;5112714;28;20196;-79
2022/11/17 19:41:43;;;;;;;34.50;20.07;;;5.10;94.40;;;;;;5112334;28;20196;-78
2022/11/17 19:44:12;;;;;;;35.60;21.40;;;5.10;94.50;;;;;;5112620;28;20195;-69
2022/11/17 19:46:42;;;;;;;36.23;23.00;;;5.10;94.40;;;;;;5112727;28;20301;-73
2022/11/17 19:49:12;;;;;;;36.23;21.37;;;5.10;94.70;;;;;;5112713;28;20191;-71
2022/11/17 19:51:41;;;;;;;30.20;20.20;;;5.20;95.30;;;;;;5114656;27;20252;-70
2022/11/17 19:54:13;;;;;;;31.57;20.03;;;5.20;95.10;;;;;;5125524;28;20197;-77
2022/11/17 19:56:41;;;;;;;33.53;18.80;;;5.20;95.40;;;;;;5133264;28;20202;-69
2022/11/17 19:59:10;;;;;;;31.13;18.67;;;5.20;95.40;;;;;;5134579;28;20262;-70
2022/11/17 20:01:43;;;;;;;26.83;17.90;;;5.20;95.60;;;;;;5133927;28;20216;-70
2022/11/17 20:04:12;;;;;;;34.20;20.13;;;5.20;95.60;;;;;;5123626;28;20203;-84
2022/11/17 20:06:40;;;;;;;38.60;19.67;;;5.30;95.40;;;;;;5133796;28;20230;-83
2022/11/17 20:09:12;;;;;;;44.93;23.30;;;5.30;95.10;;;;;;5134300;28;20204;-81
2022/11/17 20:11:41;;;;;;;45.17;24.77;;;5.30;95.30;;;;;;5122556;28;20708;-73
2022/11/17 20:14:10;;;;;;;38.43;20.47;;;5.20;94.80;;;;;;5112928;28;20184;-83
2022/11/17 20:16:38;;;;;;;34.80;17.77;;;5.10;94.20;;;;;;5112379;28;20581;-75
2022/11/17 20:19:07;;;;;;;24.47;15.10;;;5.10;94.20;;;;;;5111932;28;20238;-76
2022/11/17 20:21:35;;;;;;;24.53;14.40;;;5.10;93.70;;;;;;5122740;28;20198;-72
2022/11/17 20:24:04;;;;;;;23.10;14.27;;;5.20;93.60;;;;;;5133268;28;20196;-83
2022/11/17 20:26:39;;;;;;;20.47;10.83;;;5.30;93.60;;;;;;5132135;27;20218;-76
2022/11/17 20:29:07;;;;;;;14.50;9.00;;;5.20;92.60;;;;;;5136680;27;20732;-67